Time;durP1;ratioP1;P1;durP2;ratioP2;P2;SDS_P1;SDS_P2;PMS_P1;PMS_P2;Temp;Humidity;BMP_temperature;BMP_pressure;BME280_temperature;BME280_humidity;BME280_pressure;Samples;Min_cycle;Max_cycle;Signal;HPM_P1;HPM_P2
2022/03/04 00:02:20;;;;;;;4.17;2.93;;;12.50;50.00;;;;;;5097296;28;20264;-79
2022/03/04 00:04:45;;;;;;;3.03;2.43;;;12.50;50.10;;;;;;5096645;28;20575;-79
2022/03/04 00:07:11;;;;;;;2.70;2.13;;;12.50;50.10;;;;;;5097725;28;20229;-79
2022/03/04 00:09:51;;;;;;;3.03;2.43;;;12.50;50.10;;;;;;5097746;28;20161;-79
2022/03/04 00:12:17;;;;;;;2.87;2.57;;;12.50;50.10;;;;;;5097405;28;20177;-79
2022/03/04 00:14:43;;;;;;;2.67;2.40;;;12.50;50.10;;;;;;5097761;28;20178;-79
2022/03/04 00:17:08;;;;;;;2.50;2.30;;;12.50;50.20;;;;;;5097463;28;20189;-79
2022/03/04 00:19:46;;;;;;;2.40;2.20;;;12.50;50.20;;;;;;5097767;28;20175;-79
2022/03/04 00:22:13;;;;;;;3.50;2.60;;;12.50;50.30;;;;;;5097063;28;20200;-79
2022/03/04 00:24:39;;;;;;;3.37;2.67;;;12.50;50.30;;;;;;5097461;28;20269;-79
2022/03/04 00:27:04;;;;;;;2.87;2.30;;;12.50;50.30;;;;;;5097153;28;20209;-79
2022/03/04 00:29:38;;;;;;;3.40;2.60;;;12.50;50.30;;;;;;5097566;28;20169;-78
2022/03/04 00:32:04;;;;;;;3.90;2.70;;;12.40;50.30;;;;;;5098454;28;20238;-79
2022/03/04 00:34:29;;;;;;;2.60;2.37;;;12.40;50.30;;;;;;5102034;28;20192;-79
2022/03/04 00:36:55;;;;;;;3.00;2.50;;;12.40;50.30;;;;;;5102023;28;20480;-79
2022/03/04 00:39:23;;;;;;;2.83;2.30;;;12.40;50.40;;;;;;5102545;28;20179;-79
2022/03/04 00:41:49;;;;;;;2.77;2.40;;;12.40;50.30;;;;;;5102306;28;20183;-79
2022/03/04 00:44:14;;;;;;;4.20;2.43;;;12.40;50.40;;;;;;5101512;28;20208;-80
2022/03/04 00:46:41;;;;;;;2.30;2.10;;;12.40;50.40;;;;;;5101483;28;20173;-79
2022/03/04 00:49:09;;;;;;;2.87;2.57;;;12.40;50.40;;;;;;5101008;28;20269;-79
2022/03/04 00:51:34;;;;;;;2.83;2.50;;;12.40;50.40;;;;;;5102739;28;20246;-79
2022/03/04 00:54:00;;;;;;;2.90;2.50;;;12.40;50.50;;;;;;5103729;28;20530;-79
2022/03/04 00:56:26;;;;;;;3.00;2.70;;;12.40;50.50;;;;;;5101969;28;20169;-80
2022/03/04 00:58:52;;;;;;;2.73;2.50;;;12.40;50.50;;;;;;5102009;28;20176;-80
2022/03/04 01:01:18;;;;;;;4.17;2.33;;;12.40;50.50;;;;;;5102074;28;20173;-80
2022/03/04 01:03:44;;;;;;;3.30;2.57;;;12.40;50.60;;;;;;5102222;28;20200;-78
2022/03/04 01:06:09;;;;;;;2.77;2.53;;;12.40;50.60;;;;;;5101798;28;20174;-78
2022/03/04 01:08:35;;;;;;;2.63;2.30;;;12.40;50.60;;;;;;5101156;28;20337;-80
2022/03/04 01:11:01;;;;;;;3.93;2.27;;;12.30;50.50;;;;;;5101404;28;20166;-79
2022/03/04 01:13:29;;;;;;;2.97;2.30;;;12.30;50.60;;;;;;5101279;28;20195;-80
2022/03/04 01:15:55;;;;;;;2.83;2.43;;;12.30;50.60;;;;;;5101799;28;20441;-79
2022/03/04 01:18:21;;;;;;;2.90;2.47;;;12.30;50.60;;;;;;5102017;28;20154;-80
2022/03/04 01:20:46;;;;;;;3.33;2.30;;;12.30;50.60;;;;;;5100911;28;20196;-80
2022/03/04 01:23:13;;;;;;;3.23;2.50;;;12.30;50.70;;;;;;5101302;28;20269;-79
2022/03/04 01:25:39;;;;;;;3.30;2.53;;;12.30;50.60;;;;;;5100957;28;20208;-79
2022/03/04 01:28:04;;;;;;;2.90;2.40;;;12.30;50.70;;;;;;5101242;28;20191;-80
2022/03/04 01:30:30;;;;;;;2.97;2.40;;;12.30;50.80;;;;;;5101125;28;20174;-80
2022/03/04 01:33:02;;;;;;;2.77;2.47;;;12.30;50.70;;;;;;5100847;28;20277;-79
2022/03/04 01:35:29;;;;;;;3.10;2.50;;;12.30;50.70;;;;;;5100740;28;20188;-78
2022/03/04 01:37:55;;;;;;;2.50;2.30;;;12.30;50.70;;;;;;5101022;28;20173;-79
2022/03/04 01:40:21;;;;;;;3.50;2.40;;;12.30;50.70;;;;;;5100943;28;20181;-79
2022/03/04 01:42:59;;;;;;;3.00;2.30;;;12.30;50.70;;;;;;5101085;28;20213;-79
2022/03/04 01:45:25;;;;;;;2.67;2.47;;;12.30;50.80;;;;;;5100350;28;20354;-79
2022/03/04 01:47:51;;;;;;;2.90;2.60;;;12.30;50.80;;;;;;5101634;28;20243;-79
2022/03/04 01:50:17;;;;;;;2.60;2.40;;;12.30;50.80;;;;;;5101615;28;20163;-79
2022/03/04 01:52:43;;;;;;;2.50;2.30;;;12.20;50.70;;;;;;5100016;28;20183;-80
2022/03/04 01:55:09;;;;;;;2.73;2.53;;;12.20;50.70;;;;;;5100257;28;20652;-78
2022/03/04 01:57:35;;;;;;;3.33;2.67;;;12.20;50.70;;;;;;5099959;28;20202;-79
2022/03/04 02:00:05;;;;;;;2.63;2.43;;;12.20;50.70;;;;;;5100025;28;20170;-79
2022/03/04 02:02:42;;;;;;;2.93;2.63;;;12.20;50.80;;;;;;5099921;28;20739;-79
2022/03/04 02:05:12;;;;;;;2.57;2.37;;;12.20;50.80;;;;;;5099317;28;20170;-79
2022/03/04 02:07:37;;;;;;;2.87;2.53;;;12.20;50.80;;;;;;5099946;28;20159;-80
2022/03/04 02:10:03;;;;;;;2.90;2.60;;;12.20;50.80;;;;;;5099330;28;20282;-79
2022/03/04 02:12:29;;;;;;;2.50;2.30;;;12.20;50.80;;;;;;5100233;28;20177;-80
2022/03/04 02:14:55;;;;;;;2.90;2.60;;;12.20;50.80;;;;;;5100469;28;20173;-78
2022/03/04 02:17:21;;;;;;;3.43;2.60;;;12.20;50.90;;;;;;5100385;28;20179;-80
2022/03/04 02:19:54;;;;;;;2.80;2.50;;;12.10;50.80;;;;;;5100755;28;20778;-79
2022/03/04 02:22:20;;;;;;;2.80;2.50;;;12.10;50.80;;;;;;5100448;28;20231;-80
2022/03/04 02:24:45;;;;;;;2.67;2.47;;;12.10;50.80;;;;;;5100412;28;20170;-80
2022/03/04 02:27:11;;;;;;;2.73;2.40;;;12.10;50.80;;;;;;5100672;28;20195;-78
2022/03/04 02:29:37;;;;;;;3.00;2.70;;;12.10;50.90;;;;;;5100247;28;20180;-80
2022/03/04 02:32:04;;;;;;;3.53;2.63;;;12.10;50.90;;;;;;5101046;28;20177;-80
2022/03/04 02:34:30;;;;;;;3.87;2.73;;;12.10;50.80;;;;;;5101330;28;20180;-79
2022/03/04 02:36:56;;;;;;;2.80;2.60;;;12.10;50.90;;;;;;5100468;28;20173;-79
2022/03/04 02:39:22;;;;;;;3.47;2.50;;;12.10;50.90;;;;;;5101155;28;20612;-79
2022/03/04 02:41:48;;;;;;;4.07;3.00;;;12.10;50.90;;;;;;5100374;28;20204;-79
2022/03/04 02:44:14;;;;;;;3.53;2.80;;;12.10;50.90;;;;;;5100481;28;20215;-80
2022/03/04 02:46:41;;;;;;;2.93;2.63;;;12.10;50.90;;;;;;5099665;28;20177;-80
2022/03/04 02:49:09;;;;;;;3.20;2.73;;;12.10;50.90;;;;;;5102563;28;20444;-80
2022/03/04 02:51:35;;;;;;;3.83;3.07;;;12.10;51.00;;;;;;5105690;28;20189;-80
2022/03/04 02:54:01;;;;;;;3.00;2.60;;;12.00;50.90;;;;;;5098655;28;20180;-80
2022/03/04 02:56:26;;;;;;;2.83;2.53;;;12.00;51.00;;;;;;5099149;28;20177;-80
2022/03/04 02:58:56;;;;;;;3.13;2.77;;;12.00;51.00;;;;;;5098635;28;20282;-80
2022/03/04 03:01:24;;;;;;;2.80;2.50;;;12.00;51.00;;;;;;5099536;28;20569;-80
2022/03/04 03:03:53;;;;;;;2.93;2.60;;;12.00;50.90;;;;;;5098550;28;20257;-79
2022/03/04 03:06:19;;;;;;;3.00;2.60;;;12.00;51.00;;;;;;5100572;28;20185;-80
2022/03/04 03:08:57;;;;;;;3.07;2.77;;;12.00;50.90;;;;;;5100336;28;20169;-80
2022/03/04 03:11:23;;;;;;;3.27;2.70;;;12.00;51.00;;;;;;5100226;28;20171;-80
2022/03/04 03:13:48;;;;;;;2.67;2.47;;;12.00;51.00;;;;;;5099639;28;20232;-79
2022/03/04 03:16:14;;;;;;;3.10;2.80;;;12.00;51.00;;;;;;5099066;28;20272;-80
2022/03/04 03:18:54;;;;;;;2.73;2.47;;;12.00;50.90;;;;;;5098934;28;20171;-80
2022/03/04 03:21:20;;;;;;;2.70;2.50;;;11.90;50.90;;;;;;5099362;28;20201;-80
2022/03/04 03:23:46;;;;;;;3.83;2.97;;;12.00;50.90;;;;;;5098849;28;20525;-80
2022/03/04 03:26:12;;;;;;;3.17;2.80;;;11.90;50.90;;;;;;5098662;28;20230;-79
2022/03/04 03:28:46;;;;;;;3.30;2.70;;;11.90;50.90;;;;;;5098829;28;20747;-80
2022/03/04 03:31:12;;;;;;;3.07;2.77;;;11.90;50.90;;;;;;5099343;28;20414;-79
2022/03/04 03:33:38;;;;;;;2.93;2.60;;;11.90;50.80;;;;;;5100167;28;20572;-80
2022/03/04 03:36:04;;;;;;;4.03;3.20;;;11.90;50.80;;;;;;5098671;28;20204;-80
2022/03/04 03:38:30;;;;;;;3.10;2.80;;;11.90;50.80;;;;;;5098416;28;20182;-79
2022/03/04 03:40:55;;;;;;;3.37;3.00;;;11.80;50.70;;;;;;5099629;28;20226;-78
2022/03/04 03:43:21;;;;;;;3.93;3.20;;;11.80;50.80;;;;;;5098269;28;20226;-79
2022/03/04 03:45:47;;;;;;;4.23;3.37;;;11.80;50.70;;;;;;5098498;28;20167;-80
2022/03/04 03:48:13;;;;;;;3.40;3.10;;;11.80;50.70;;;;;;5099053;28;20166;-79
2022/03/04 03:50:39;;;;;;;3.40;3.07;;;11.80;50.80;;;;;;5099201;28;20164;-80
2022/03/04 03:53:05;;;;;;;3.27;2.97;;;11.80;50.80;;;;;;5098020;28;20171;-80
2022/03/04 03:55:31;;;;;;;3.63;3.07;;;11.80;50.80;;;;;;5098045;28;20185;-80
2022/03/04 03:57:57;;;;;;;2.83;2.57;;;11.80;50.70;;;;;;5098292;28;20173;-80
2022/03/04 04:00:22;;;;;;;4.10;2.90;;;11.80;50.80;;;;;;5097650;28;20172;-78
2022/03/04 04:02:49;;;;;;;3.47;2.83;;;11.80;50.80;;;;;;5097978;28;20218;-80
2022/03/04 04:05:15;;;;;;;4.73;3.10;;;11.80;50.80;;;;;;5097451;28;20189;-80
2022/03/04 04:07:41;;;;;;;3.73;3.20;;;11.80;50.80;;;;;;5097379;28;20169;-79
2022/03/04 04:10:08;;;;;;;3.17;2.87;;;11.70;50.80;;;;;;5098052;28;20169;-79
2022/03/04 04:12:34;;;;;;;3.23;2.93;;;11.80;50.80;;;;;;5097529;28;20454;-80
2022/03/04 04:15:02;;;;;;;3.10;2.80;;;11.80;50.80;;;;;;5097306;28;20529;-80
2022/03/04 04:17:27;;;;;;;2.90;2.60;;;11.70;50.80;;;;;;5097294;28;20201;-80
2022/03/04 04:19:53;;;;;;;3.20;2.60;;;11.70;50.90;;;;;;5097034;28;20181;-80
2022/03/04 04:22:20;;;;;;;3.80;2.90;;;11.70;50.80;;;;;;5098232;28;20200;-80
2022/03/04 04:24:50;;;;;;;3.67;2.93;;;11.70;50.90;;;;;;5098014;28;20414;-80
2022/03/04 04:27:16;;;;;;;4.10;3.20;;;11.70;50.90;;;;;;5097945;28;20654;-80
2022/03/04 04:29:42;;;;;;;3.33;2.87;;;11.70;50.90;;;;;;5098618;28;20183;-80
2022/03/04 04:32:09;;;;;;;3.07;2.63;;;11.70;50.80;;;;;;5097732;28;20181;-80
2022/03/04 04:34:35;;;;;;;3.07;2.57;;;11.70;50.80;;;;;;5097547;28;20179;-79
2022/03/04 04:37:01;;;;;;;3.93;3.20;;;11.70;50.80;;;;;;5097827;28;20206;-80
2022/03/04 04:39:26;;;;;;;3.07;2.63;;;11.70;50.90;;;;;;5097583;28;20171;-80
2022/03/04 04:41:59;;;;;;;2.80;2.60;;;11.70;51.00;;;;;;5098304;28;20225;-79
2022/03/04 04:44:25;;;;;;;3.83;2.97;;;11.60;50.90;;;;;;5098292;28;20486;-80
2022/03/04 04:46:51;;;;;;;4.37;3.20;;;11.60;50.90;;;;;;5097331;28;20169;-80
2022/03/04 04:49:16;;;;;;;3.90;3.10;;;11.60;50.90;;;;;;5097643;28;20481;-80
2022/03/04 04:51:50;;;;;;;3.47;3.10;;;11.60;50.90;;;;;;5098904;28;20165;-80
2022/03/04 04:54:15;;;;;;;3.57;2.90;;;11.60;50.90;;;;;;5098270;28;20267;-80
2022/03/04 04:56:41;;;;;;;3.00;2.70;;;11.60;50.90;;;;;;5097522;28;20327;-79
2022/03/04 04:59:06;;;;;;;2.90;2.60;;;11.60;51.10;;;;;;5097973;28;20516;-80
2022/03/04 05:01:43;;;;;;;3.13;2.83;;;11.60;50.90;;;;;;5097681;28;20179;-80
2022/03/04 05:04:09;;;;;;;2.83;2.57;;;11.60;50.90;;;;;;5097662;28;20213;-80
2022/03/04 05:06:35;;;;;;;3.23;2.63;;;11.60;51.00;;;;;;5097315;28;20166;-79
2022/03/04 05:09:00;;;;;;;3.40;2.90;;;11.60;51.00;;;;;;5097296;28;20180;-80
2022/03/04 05:11:26;;;;;;;3.07;2.63;;;11.50;50.90;;;;;;5097317;28;20574;-79
2022/03/04 05:13:58;;;;;;;3.13;2.50;;;11.50;50.90;;;;;;5097796;28;20183;-80
2022/03/04 05:16:25;;;;;;;3.10;2.80;;;11.50;50.90;;;;;;5097866;28;20171;-80
2022/03/04 05:18:51;;;;;;;3.13;2.70;;;11.50;50.90;;;;;;5099431;28;20555;-80
2022/03/04 05:21:33;;;;;;;3.03;2.47;;;11.50;51.00;;;;;;5102286;28;20182;-80
2022/03/04 05:23:58;;;;;;;4.63;3.00;;;11.50;51.00;;;;;;5101155;28;20597;-80
2022/03/04 05:26:28;;;;;;;3.10;2.80;;;11.50;51.00;;;;;;5100885;28;20165;-79
2022/03/04 05:28:55;;;;;;;2.93;2.70;;;11.50;51.00;;;;;;5101056;28;20178;-80
2022/03/04 05:31:23;;;;;;;3.17;2.87;;;11.50;51.00;;;;;;5100669;28;20194;-80
2022/03/04 05:33:50;;;;;;;3.20;2.70;;;11.50;51.00;;;;;;5100406;28;20556;-79
2022/03/04 05:36:16;;;;;;;2.87;2.60;;;11.50;51.10;;;;;;5099687;28;20588;-79
2022/03/04 05:38:42;;;;;;;3.27;2.80;;;11.40;51.20;;;;;;5100610;28;20177;-80
2022/03/04 05:41:08;;;;;;;3.10;2.57;;;11.50;51.40;;;;;;5099607;28;20591;-79
2022/03/04 05:43:33;;;;;;;3.37;2.93;;;11.50;51.50;;;;;;5099444;28;20228;-79
2022/03/04 05:45:59;;;;;;;3.50;3.13;;;11.50;51.60;;;;;;5099018;28;20513;-79
2022/03/04 05:48:25;;;;;;;2.90;2.60;;;11.50;52.30;;;;;;5099700;28;20246;-80
2022/03/04 05:50:51;;;;;;;4.37;3.00;;;11.50;52.10;;;;;;5100106;28;20172;-79
2022/03/04 05:53:16;;;;;;;3.40;2.67;;;11.50;52.30;;;;;;5099577;28;20195;-79
2022/03/04 05:55:42;;;;;;;2.90;2.60;;;11.50;52.50;;;;;;5099079;28;20183;-80
2022/03/04 05:58:08;;;;;;;3.37;3.00;;;11.50;52.60;;;;;;5100262;28;20214;-79
2022/03/04 06:00:34;;;;;;;4.30;2.80;;;11.50;52.80;;;;;;5098853;28;20177;-80
2022/03/04 06:03:02;;;;;;;3.83;3.23;;;11.50;52.90;;;;;;5098621;28;20470;-79
2022/03/04 06:05:27;;;;;;;4.20;3.10;;;11.50;52.90;;;;;;5099184;28;20187;-80
2022/03/04 06:07:53;;;;;;;4.17;3.43;;;11.50;52.90;;;;;;5098625;28;20168;-79
2022/03/04 06:10:19;;;;;;;4.00;3.33;;;11.50;52.80;;;;;;5099007;28;20263;-80
2022/03/04 06:12:44;;;;;;;4.70;3.43;;;11.50;52.80;;;;;;5098380;28;20741;-80
2022/03/04 06:15:11;;;;;;;4.47;3.63;;;11.50;52.80;;;;;;5106186;28;20175;-80
2022/03/04 06:17:37;;;;;;;4.10;3.10;;;11.50;52.80;;;;;;5097978;28;20192;-80
2022/03/04 06:20:03;;;;;;;4.40;3.10;;;11.50;52.80;;;;;;5097010;28;20256;-79
2022/03/04 06:22:29;;;;;;;4.33;3.17;;;11.50;52.80;;;;;;5098072;28;20210;-80
2022/03/04 06:24:54;;;;;;;4.30;3.50;;;11.50;52.80;;;;;;5101032;28;20162;-80
2022/03/04 06:27:20;;;;;;;4.00;3.17;;;11.50;52.90;;;;;;5117631;28;20172;-80
2022/03/04 06:29:46;;;;;;;3.77;3.00;;;11.50;52.90;;;;;;5116925;28;20174;-80
2022/03/04 06:32:13;;;;;;;4.83;3.23;;;11.50;52.90;;;;;;5099419;28;20172;-79
2022/03/04 06:34:39;;;;;;;5.47;3.03;;;11.50;53.00;;;;;;5096699;28;20277;-80
2022/03/04 06:37:05;;;;;;;4.70;3.13;;;11.50;53.10;;;;;;5096841;28;20258;-80
2022/03/04 06:39:32;;;;;;;4.83;3.40;;;11.50;53.00;;;;;;5096856;28;20178;-79
2022/03/04 06:41:58;;;;;;;5.77;3.60;;;11.50;53.00;;;;;;5097513;28;20266;-80
2022/03/04 06:44:25;;;;;;;3.50;3.20;;;11.50;53.10;;;;;;5095975;28;20302;-79
2022/03/04 06:46:52;;;;;;;4.17;3.57;;;11.50;53.00;;;;;;5095465;28;20186;-80
2022/03/04 06:49:35;;;;;;;5.53;3.47;;;11.50;53.00;;;;;;5096486;28;20182;-79
2022/03/04 06:52:01;;;;;;;5.03;3.57;;;11.60;53.00;;;;;;5095900;28;20238;-80
2022/03/04 06:54:27;;;;;;;4.53;3.43;;;11.60;52.90;;;;;;5096018;28;20180;-79
2022/03/04 06:56:53;;;;;;;3.90;3.40;;;11.70;52.70;;;;;;5096627;28;20181;-80
2022/03/04 06:59:18;;;;;;;4.70;3.70;;;11.80;52.50;;;;;;5096683;28;20182;-80
2022/03/04 07:01:44;;;;;;;6.70;3.43;;;11.90;52.30;;;;;;5096623;28;20178;-80
2022/03/04 07:04:10;;;;;;;5.10;3.57;;;12.00;52.10;;;;;;5096790;28;20209;-80
2022/03/04 07:06:36;;;;;;;4.23;3.30;;;12.10;52.00;;;;;;5096376;28;20174;-80
2022/03/04 07:09:02;;;;;;;4.00;3.40;;;12.20;51.70;;;;;;5095600;28;20170;-79
2022/03/04 07:11:28;;;;;;;5.53;3.90;;;12.30;51.60;;;;;;5096584;28;20171;-80
2022/03/04 07:13:53;;;;;;;5.93;3.50;;;12.40;51.80;;;;;;5096690;28;20182;-80
2022/03/04 07:16:19;;;;;;;4.50;3.90;;;12.40;51.10;;;;;;5096563;28;20291;-80
2022/03/04 07:18:44;;;;;;;5.30;3.80;;;12.50;51.10;;;;;;5096000;28;20220;-79
2022/03/04 07:21:11;;;;;;;4.33;3.23;;;12.60;50.90;;;;;;5096201;28;20597;-80
2022/03/04 07:23:36;;;;;;;4.80;3.70;;;12.70;50.70;;;;;;5095846;28;20235;-79
2022/03/04 07:26:08;;;;;;;5.17;3.53;;;12.80;50.50;;;;;;5095975;28;20228;-79
2022/03/04 07:28:34;;;;;;;4.70;3.60;;;12.90;50.60;;;;;;5096057;28;20180;-80
2022/03/04 07:30:59;;;;;;;5.67;4.00;;;13.00;50.30;;;;;;5095962;28;20180;-79
2022/03/04 07:33:25;;;;;;;4.67;3.77;;;13.10;50.20;;;;;;5095703;28;20194;-80
2022/03/04 07:35:51;;;;;;;5.47;3.80;;;13.30;50.20;;;;;;5097336;28;20185;-80
2022/03/04 07:38:16;;;;;;;5.10;3.80;;;13.40;49.90;;;;;;5096327;28;20661;-80
2022/03/04 07:40:44;;;;;;;4.60;3.90;;;13.50;49.90;;;;;;5096387;28;20209;-80
2022/03/04 07:43:10;;;;;;;4.97;4.13;;;13.60;50.00;;;;;;5094602;28;20239;-80
2022/03/04 07:46:21;;;;;;;6.30;3.83;;;13.70;50.00;;;;;;5097339;28;20580;-80
2022/03/04 07:48:47;;;;;;;4.57;3.97;;;13.80;50.00;;;;;;5093635;28;20187;-80
2022/03/04 07:51:13;;;;;;;5.17;4.00;;;13.90;49.90;;;;;;5095092;28;20259;-78
2022/03/04 07:53:39;;;;;;;7.60;4.40;;;14.00;49.60;;;;;;5094958;28;20193;-80
2022/03/04 07:56:05;;;;;;;4.87;4.40;;;14.10;49.80;;;;;;5094593;28;20182;-80
2022/03/04 07:58:30;;;;;;;5.90;4.50;;;14.20;49.30;;;;;;5094273;28;20170;-80
2022/03/04 08:01:03;;;;;;;8.03;4.63;;;14.30;49.30;;;;;;5094680;28;20235;-80
2022/03/04 08:03:32;;;;;;;6.23;4.77;;;14.40;49.10;;;;;;5095489;28;20301;-79
2022/03/04 08:06:00;;;;;;;5.17;4.50;;;14.40;48.70;;;;;;5095249;28;20280;-79
2022/03/04 08:08:30;;;;;;;5.63;4.70;;;14.60;48.50;;;;;;5095943;28;20175;-80
2022/03/04 08:10:57;;;;;;;6.87;5.20;;;14.70;48.50;;;;;;5094940;28;20265;-79
2022/03/04 08:13:23;;;;;;;6.43;5.50;;;14.80;48.40;;;;;;5095145;28;20722;-80
2022/03/04 08:15:51;;;;;;;6.47;5.20;;;14.80;48.10;;;;;;5094363;28;20175;-80
2022/03/04 08:18:18;;;;;;;7.70;4.83;;;14.90;48.10;;;;;;5094822;28;20183;-79
2022/03/04 08:20:46;;;;;;;7.40;5.70;;;15.00;47.80;;;;;;5093544;28;20246;-79
2022/03/04 08:23:21;;;;;;;8.13;5.60;;;15.00;47.70;;;;;;5094581;28;20205;-80
2022/03/04 08:25:49;;;;;;;6.77;5.77;;;15.10;47.60;;;;;;5093083;28;20306;-79
2022/03/04 08:28:19;;;;;;;7.93;5.40;;;15.20;47.60;;;;;;5092795;28;20171;-80
2022/03/04 08:30:46;;;;;;;8.63;5.93;;;15.20;47.40;;;;;;5094425;28;20231;-79
2022/03/04 08:33:14;;;;;;;8.03;6.23;;;15.30;47.30;;;;;;5077027;28;20170;-80
2022/03/04 08:35:42;;;;;;;9.50;6.63;;;15.30;47.10;;;;;;5092570;28;20190;-79
2022/03/04 08:38:08;;;;;;;11.73;6.47;;;15.40;47.00;;;;;;5093248;28;20168;-80
2022/03/04 08:40:34;;;;;;;8.90;6.07;;;15.40;46.80;;;;;;5094277;28;20192;-80
2022/03/04 08:43:00;;;;;;;8.90;6.80;;;15.50;46.80;;;;;;5093687;28;20837;-79
2022/03/04 08:45:31;;;;;;;9.10;6.90;;;15.50;46.60;;;;;;5081015;28;20171;-80
2022/03/04 08:47:59;;;;;;;8.50;6.57;;;15.50;46.50;;;;;;5073879;28;20174;-80
2022/03/04 08:50:26;;;;;;;7.77;6.73;;;15.60;46.40;;;;;;5073185;28;20167;-80
2022/03/04 08:52:52;;;;;;;8.50;6.23;;;15.70;46.40;;;;;;5073087;28;20176;-78
2022/03/04 08:55:20;;;;;;;7.43;6.17;;;15.70;46.30;;;;;;5092903;28;20190;-80
2022/03/04 08:57:47;;;;;;;10.93;7.03;;;15.80;46.40;;;;;;5097167;28;20213;-79
2022/03/04 09:00:15;;;;;;;9.03;6.93;;;15.90;46.20;;;;;;5097910;28;20468;-79
2022/03/04 09:02:41;;;;;;;9.43;6.67;;;15.90;46.20;;;;;;5097975;28;20634;-80
2022/03/04 09:05:10;;;;;;;10.40;7.30;;;16.00;46.10;;;;;;5097792;28;20163;-80
2022/03/04 09:07:38;;;;;;;9.37;7.07;;;16.00;46.00;;;;;;5098546;28;20163;-80
2022/03/04 09:10:06;;;;;;;10.30;6.73;;;16.10;45.90;;;;;;5096983;28;20634;-77
2022/03/04 09:12:32;;;;;;;11.30;6.97;;;16.20;45.90;;;;;;5097122;28;20194;-77
2022/03/04 09:14:58;;;;;;;9.10;6.60;;;16.20;45.90;;;;;;5097542;28;20184;-76
2022/03/04 09:17:26;;;;;;;8.93;6.50;;;16.30;45.90;;;;;;5097144;28;20175;-78
2022/03/04 09:20:00;;;;;;;10.70;6.77;;;16.30;45.90;;;;;;5097183;28;20228;-77
2022/03/04 09:22:45;;;;;;;9.70;7.00;;;16.30;45.90;;;;;;5096235;28;20171;-77
2022/03/04 09:25:13;;;;;;;10.70;6.63;;;16.40;45.70;;;;;;5078130;28;20199;-77
2022/03/04 09:27:50;;;;;;;8.30;6.67;;;16.40;45.60;;;;;;5097456;28;20198;-77
2022/03/04 09:30:16;;;;;;;9.53;6.90;;;16.40;45.60;;;;;;5098669;28;20179;-77
2022/03/04 09:32:42;;;;;;;9.63;6.73;;;16.10;45.50;;;;;;5103444;28;20171;-77
2022/03/04 09:35:09;;;;;;;11.43;6.80;;;15.80;45.70;;;;;;5097618;28;20190;-77
2022/03/04 09:37:38;;;;;;;8.77;6.77;;;15.50;46.00;;;;;;5097208;28;20554;-77
2022/03/04 09:40:05;;;;;;;7.33;6.10;;;15.10;46.40;;;;;;5099848;28;20175;-78
2022/03/04 09:42:33;;;;;;;8.30;6.50;;;14.90;46.80;;;;;;5081327;28;20179;-77
2022/03/04 09:45:01;;;;;;;9.40;6.40;;;14.70;47.10;;;;;;5084478;28;20174;-77
2022/03/04 09:47:31;;;;;;;9.00;6.53;;;14.60;47.30;;;;;;5096810;28;20258;-78
2022/03/04 09:49:59;;;;;;;10.17;6.23;;;14.40;47.90;;;;;;5081717;28;20207;-77
2022/03/04 09:52:31;;;;;;;8.20;6.87;;;14.40;47.70;;;;;;5096210;28;20232;-78
2022/03/04 09:55:00;;;;;;;7.27;6.17;;;14.30;48.30;;;;;;5096495;28;20178;-79
2022/03/04 09:57:28;;;;;;;8.17;6.10;;;14.30;47.90;;;;;;5096103;28;20660;-78
2022/03/04 09:59:55;;;;;;;9.77;6.60;;;14.30;48.00;;;;;;5095630;28;20179;-78
2022/03/04 10:02:21;;;;;;;7.93;6.27;;;14.30;48.50;;;;;;5095960;28;20175;-78
2022/03/04 10:05:00;;;;;;;8.13;5.80;;;14.20;48.20;;;;;;5085857;28;20209;-78
2022/03/04 10:07:27;;;;;;;9.37;6.43;;;14.20;48.20;;;;;;5095170;28;20171;-78
2022/03/04 10:09:52;;;;;;;8.97;6.17;;;14.20;48.20;;;;;;5095106;28;20178;-79
2022/03/04 10:12:20;;;;;;;9.67;6.50;;;14.20;48.30;;;;;;5094479;28;20163;-78
2022/03/04 10:15:07;;;;;;;7.47;5.50;;;14.20;48.30;;;;;;5094157;28;20167;-78
2022/03/04 10:17:35;;;;;;;6.23;5.60;;;14.20;48.30;;;;;;5094149;28;20175;-78
2022/03/04 10:20:04;;;;;;;9.37;6.40;;;14.20;48.30;;;;;;5094241;28;20179;-78
2022/03/04 10:23:18;;;;;;;8.17;6.07;;;14.20;48.30;;;;;;5093970;28;20299;-78
2022/03/04 10:25:52;;;;;;;8.63;6.20;;;14.20;48.40;;;;;;5073835;28;20274;-78
2022/03/04 10:28:20;;;;;;;7.00;5.33;;;14.20;48.30;;;;;;5084915;28;20193;-78
2022/03/04 10:30:48;;;;;;;7.53;6.07;;;14.20;48.40;;;;;;5095205;28;20159;-78
2022/03/04 10:33:24;;;;;;;7.90;5.67;;;14.20;48.40;;;;;;5095137;28;20612;-78
2022/03/04 10:36:12;;;;;;;8.20;5.83;;;14.20;48.40;;;;;;5095077;28;20186;-77
2022/03/04 10:38:40;;;;;;;6.87;5.20;;;14.20;48.50;;;;;;5099663;28;20236;-78
2022/03/04 10:41:27;;;;;;;6.77;5.60;;;14.20;48.50;;;;;;5096228;28;20214;-79
2022/03/04 10:44:24;;;;;;;8.80;5.80;;;14.20;48.50;;;;;;5096038;28;20214;-78
2022/03/04 10:46:58;;;;;;;8.50;5.50;;;14.20;48.60;;;;;;5095911;28;20181;-78
2022/03/04 10:49:25;;;;;;;7.60;5.57;;;14.20;48.80;;;;;;5095628;28;20171;-78
2022/03/04 10:52:05;;;;;;;8.67;5.63;;;14.20;48.80;;;;;;5094810;28;20174;-78
2022/03/04 10:54:31;;;;;;;7.27;5.57;;;14.20;48.80;;;;;;5096164;28;20516;-79
2022/03/04 10:56:57;;;;;;;7.13;5.77;;;14.20;48.90;;;;;;5094966;28;20274;-78
2022/03/04 10:59:23;;;;;;;8.50;5.60;;;14.20;48.90;;;;;;5094988;28;20178;-79
2022/03/04 11:01:51;;;;;;;7.13;5.50;;;14.10;48.90;;;;;;5095954;28;20176;-78
2022/03/04 11:04:19;;;;;;;9.17;5.83;;;14.20;48.90;;;;;;5094251;28;20471;-79
2022/03/04 11:06:47;;;;;;;7.53;5.50;;;14.10;48.90;;;;;;5095229;28;20168;-79
2022/03/04 11:09:24;;;;;;;9.60;6.13;;;14.10;48.90;;;;;;5094479;28;20168;-79
2022/03/04 11:11:51;;;;;;;9.87;5.77;;;14.10;49.00;;;;;;5094475;28;20176;-78
2022/03/04 11:14:19;;;;;;;8.03;6.07;;;14.10;49.00;;;;;;5093715;28;20214;-78
2022/03/04 11:16:48;;;;;;;10.10;5.90;;;14.10;49.00;;;;;;5093422;28;20174;-79
2022/03/04 11:19:15;;;;;;;7.20;5.90;;;14.10;49.00;;;;;;5092872;28;20168;-79
2022/03/04 11:21:41;;;;;;;8.47;5.83;;;14.10;49.00;;;;;;5092480;28;20267;-78
2022/03/04 11:24:09;;;;;;;7.93;5.93;;;14.10;49.10;;;;;;5092953;28;20295;-78
2022/03/04 11:26:37;;;;;;;8.33;5.60;;;14.10;49.00;;;;;;5094329;28;20256;-78
2022/03/04 11:29:05;;;;;;;6.33;5.20;;;14.10;49.10;;;;;;5094353;28;20180;-79
2022/03/04 11:31:32;;;;;;;7.87;5.10;;;14.10;49.10;;;;;;5096814;28;20164;-78
2022/03/04 11:34:02;;;;;;;6.70;5.43;;;14.10;49.10;;;;;;5094362;28;20241;-78
2022/03/04 11:36:31;;;;;;;6.43;5.33;;;14.10;49.30;;;;;;5094313;28;20622;-80
2022/03/04 11:39:06;;;;;;;6.90;5.20;;;14.10;49.30;;;;;;5095198;28;20186;-79
2022/03/04 11:41:39;;;;;;;9.80;6.00;;;14.10;49.30;;;;;;5095090;28;20170;-79
2022/03/04 11:44:21;;;;;;;7.27;5.53;;;14.10;49.30;;;;;;5095581;28;20189;-79
2022/03/04 11:46:51;;;;;;;9.33;5.53;;;14.10;49.40;;;;;;5093764;28;20189;-79
2022/03/04 11:49:48;;;;;;;7.77;5.40;;;14.10;49.40;;;;;;5093359;28;20196;-79
2022/03/04 11:53:03;;;;;;;8.93;5.30;;;14.10;49.40;;;;;;5093829;28;20215;-79
2022/03/04 11:56:09;;;;;;;8.30;5.10;;;14.10;49.40;;;;;;5084821;28;20180;-79
2022/03/04 11:59:04;;;;;;;6.43;5.30;;;14.10;49.40;;;;;;5094319;28;20171;-80
2022/03/04 12:01:46;;;;;;;7.73;4.93;;;14.10;49.40;;;;;;5094079;28;20261;-79
2022/03/04 12:04:15;;;;;;;6.70;5.00;;;14.10;49.40;;;;;;5093748;28;20343;-80
2022/03/04 12:06:43;;;;;;;6.87;5.40;;;14.10;49.40;;;;;;5093573;28;20729;-80
2022/03/04 12:09:46;;;;;;;7.67;4.73;;;14.10;49.50;;;;;;5093568;28;20181;-79
2022/03/04 12:12:38;;;;;;;5.73;4.53;;;14.10;50.00;;;;;;5083033;28;20177;-80
2022/03/04 12:15:22;;;;;;;7.80;4.60;;;14.10;49.70;;;;;;5093156;28;20209;-80
2022/03/04 12:17:55;;;;;;;7.10;5.40;;;14.10;49.80;;;;;;5093472;28;20250;-79
2022/03/04 12:21:19;;;;;;;6.07;4.73;;;14.10;49.80;;;;;;5093759;28;20571;-80
2022/03/04 12:23:47;;;;;;;6.37;4.97;;;14.10;49.90;;;;;;5073504;28;20209;-80
2022/03/04 12:26:24;;;;;;;7.20;5.23;;;14.10;49.80;;;;;;5093150;28;20260;-80
2022/03/04 12:29:03;;;;;;;6.43;5.53;;;14.10;49.90;;;;;;5092645;28;20175;-79
2022/03/04 12:31:39;;;;;;;8.87;5.50;;;14.10;49.90;;;;;;5092338;28;20601;-80
2022/03/04 12:34:18;;;;;;;6.93;4.90;;;14.00;49.80;;;;;;5092893;28;20174;-80
2022/03/04 12:36:55;;;;;;;7.30;5.30;;;14.10;49.90;;;;;;5095898;28;20207;-79
2022/03/04 12:39:35;;;;;;;7.13;4.83;;;14.10;49.90;;;;;;5093561;28;20176;-79
2022/03/04 12:42:04;;;;;;;6.77;4.83;;;14.10;49.90;;;;;;5091165;28;20243;-79
2022/03/04 12:44:33;;;;;;;7.80;5.70;;;14.10;49.80;;;;;;5092910;28;20232;-79
2022/03/04 12:47:11;;;;;;;7.17;5.30;;;14.00;49.80;;;;;;5092802;28;20512;-78
2022/03/04 12:49:43;;;;;;;8.80;5.37;;;14.00;49.80;;;;;;5093464;28;20173;-79
2022/03/04 12:52:11;;;;;;;8.77;5.50;;;14.00;49.80;;;;;;5092908;28;20541;-75
2022/03/04 12:54:38;;;;;;;8.23;5.70;;;14.10;50.00;;;;;;5092030;28;20447;-75
2022/03/04 12:57:06;;;;;;;6.87;5.23;;;14.20;50.00;;;;;;5093535;28;20222;-75